createdAt,value
2023-04-11T00:00:27.256Z,54.20
2023-04-11T00:02:59.812Z,53.33
2023-04-11T00:05:31.291Z,50.57
2023-04-11T00:08:00.047Z,50.43
2023-04-11T00:10:30.293Z,45.47
2023-04-11T00:13:00.213Z,44.17
2023-04-11T00:15:28.943Z,47.70
2023-04-11T00:17:58.632Z,47.50
2023-04-11T00:20:27.396Z,45.97
2023-04-11T00:22:58.418Z,47.60
2023-04-11T00:25:27.373Z,43.73
2023-04-11T00:27:57.478Z,44.27
2023-04-11T00:30:26.209Z,44.07
2023-04-11T00:32:55.038Z,43.67
2023-04-11T00:35:23.970Z,41.80
2023-04-11T00:37:56.269Z,44.13
2023-04-11T00:40:25.365Z,43.83
2023-04-11T00:42:54.002Z,44.90
2023-04-11T00:45:24.771Z,47.43
2023-04-11T00:47:53.912Z,45.80
2023-04-11T00:50:25.218Z,45.60
2023-04-11T00:52:56.382Z,43.10
2023-04-11T00:55:25.653Z,42.03
2023-04-11T00:57:55.902Z,44.10
2023-04-11T01:00:26.989Z,41.77
2023-04-11T01:02:55.946Z,43.10
2023-04-11T01:05:25.032Z,41.90
2023-04-11T01:07:55.774Z,42.17
2023-04-11T01:10:28.959Z,40.70
2023-04-11T01:12:59.860Z,41.47
2023-04-11T01:15:30.072Z,39.40
2023-04-11T01:18:02.209Z,39.73
2023-04-11T01:20:33.706Z,38.60
2023-04-11T01:23:03.647Z,38.57
2023-04-11T01:25:34.320Z,38.63
2023-04-11T01:28:03.331Z,37.47
2023-04-11T01:30:32.078Z,38.20
2023-04-11T01:33:00.901Z,38.57
2023-04-11T01:35:29.708Z,40.23
2023-04-11T01:37:58.540Z,40.27
2023-04-11T01:40:29.642Z,38.67
2023-04-11T01:43:01.961Z,39.33
2023-04-11T01:45:31.210Z,39.23
2023-04-11T01:48:00.150Z,37.57
2023-04-11T01:50:29.158Z,40.27
2023-04-11T01:52:58.049Z,39.53
2023-04-11T01:55:27.009Z,38.63
2023-04-11T01:57:55.640Z,37.97
2023-04-11T02:00:26.578Z,39.03
2023-04-11T02:02:55.543Z,39.10
2023-04-11T02:05:24.435Z,38.47
2023-04-11T02:07:53.310Z,38.80
2023-04-11T02:10:22.612Z,39.37
2023-04-11T02:12:51.210Z,38.67
2023-04-11T02:15:20.084Z,39.60
2023-04-11T02:17:53.922Z,41.30
2023-04-11T02:20:23.193Z,40.37
2023-04-11T02:22:51.938Z,40.77
2023-04-11T02:25:20.877Z,41.77
2023-04-11T02:27:49.580Z,41.83
2023-04-11T02:30:18.446Z,42.67
2023-04-11T02:32:49.513Z,42.70
2023-04-11T02:35:20.414Z,42.77
2023-04-11T02:37:49.181Z,40.23
2023-04-11T02:40:18.034Z,40.97
2023-04-11T02:42:46.779Z,41.17
2023-04-11T02:45:16.129Z,39.80
2023-04-11T02:47:44.979Z,41.73
2023-04-11T02:50:13.816Z,41.93
2023-04-11T02:52:50.370Z,44.23
2023-04-11T02:55:24.202Z,44.10
2023-04-11T02:57:53.668Z,43.73
2023-04-11T03:00:23.233Z,43.83
2023-04-11T03:02:59.180Z,44.17
2023-04-11T03:05:29.148Z,41.83
2023-04-11T03:07:59.348Z,42.27
2023-04-11T03:10:30.715Z,42.90
2023-04-11T03:13:00.936Z,41.10
2023-04-11T03:15:32.354Z,41.00
2023-04-11T03:18:05.995Z,39.50
2023-04-11T03:20:35.133Z,41.53
2023-04-11T03:23:05.340Z,41.47
2023-04-11T03:25:34.141Z,42.00
2023-04-11T03:28:05.580Z,40.90
2023-04-11T03:30:34.562Z,41.27
2023-04-11T03:33:04.067Z,38.57
2023-04-11T03:35:33.562Z,37.27
2023-04-11T03:38:02.426Z,38.73
2023-04-11T03:40:32.591Z,38.27
2023-04-11T03:43:11.868Z,38.27
2023-04-11T03:45:40.574Z,37.13
2023-04-11T03:48:18.185Z,36.73
2023-04-11T03:50:52.974Z,37.87
2023-04-11T03:53:27.178Z,39.43
2023-04-11T03:56:01.824Z,41.57
2023-04-11T03:58:36.186Z,42.50
2023-04-11T04:01:06.362Z,41.50
2023-04-11T04:03:35.835Z,42.23
2023-04-11T04:06:05.116Z,41.90
2023-04-11T04:08:34.757Z,41.23
2023-04-11T04:11:05.827Z,46.13
2023-04-11T04:13:36.766Z,44.97
2023-04-11T04:16:18.131Z,42.97
2023-04-11T04:18:52.690Z,44.13
2023-04-11T04:21:26.783Z,45.30
2023-04-11T04:24:03.597Z,44.63
2023-04-11T04:26:50.014Z,46.77
2023-04-11T04:29:39.560Z,46.87
2023-04-11T04:32:11.804Z,43.87
2023-04-11T04:34:49.517Z,40.70
2023-04-11T04:37:27.303Z,40.90
2023-04-11T04:40:07.928Z,40.80
2023-04-11T04:42:45.498Z,41.10
2023-04-11T04:45:14.346Z,40.00
2023-04-11T04:47:43.638Z,40.23
2023-04-11T04:50:12.744Z,40.73
2023-04-11T04:52:41.627Z,42.50
2023-04-11T04:55:10.687Z,43.97
2023-04-11T04:57:39.499Z,43.50
2023-04-11T05:00:12.062Z,42.23
2023-04-11T05:02:44.334Z,43.97
2023-04-11T05:05:15.830Z,42.63
2023-04-11T05:07:45.369Z,42.73
2023-04-11T05:10:14.477Z,42.33
2023-04-11T05:12:44.355Z,44.07
2023-04-11T05:15:16.203Z,43.47
2023-04-11T05:17:45.103Z,43.07
2023-04-11T05:20:16.158Z,40.57
2023-04-11T05:22:49.438Z,40.97
2023-04-11T05:25:19.213Z,43.13
2023-04-11T05:27:48.958Z,42.73
2023-04-11T05:30:20.058Z,43.77
2023-04-11T05:32:50.925Z,42.83
2023-04-11T05:35:19.832Z,42.60
2023-04-11T05:37:54.410Z,42.30
2023-04-11T05:40:23.061Z,42.03
2023-04-11T05:42:52.003Z,42.33
2023-04-11T05:45:22.111Z,41.13
2023-04-11T05:47:50.842Z,38.83
2023-04-11T05:50:19.474Z,40.00
2023-04-11T05:52:48.902Z,37.93
2023-04-11T05:55:18.773Z,37.20
2023-04-11T05:57:47.510Z,34.83
2023-04-11T06:00:17.563Z,34.50
2023-04-11T06:02:49.311Z,34.53
2023-04-11T06:05:18.776Z,34.00
2023-04-11T06:07:47.794Z,34.27
2023-04-11T06:10:16.443Z,33.63
2023-04-11T06:12:45.193Z,34.57
2023-04-11T06:15:13.958Z,33.00
2023-04-11T06:17:42.719Z,32.93
2023-04-11T06:20:13.319Z,30.87
2023-04-11T06:22:42.019Z,30.57
2023-04-11T06:25:13.578Z,31.77
2023-04-11T06:27:45.365Z,32.63
2023-04-11T06:30:14.816Z,32.03
2023-04-11T06:32:43.503Z,32.47
2023-04-11T06:35:13.522Z,33.50
2023-04-11T06:37:45.474Z,32.50
2023-04-11T06:40:14.606Z,34.07
2023-04-11T06:42:43.868Z,34.67
2023-04-11T06:45:13.061Z,35.30
2023-04-11T06:47:42.071Z,35.27
2023-04-11T06:50:11.974Z,36.33
2023-04-11T06:52:42.138Z,35.77
2023-04-11T06:55:14.470Z,35.33
2023-04-11T06:57:44.817Z,35.57
2023-04-11T07:00:17.053Z,36.73
2023-04-11T07:02:45.967Z,36.10
2023-04-11T07:05:14.974Z,39.00
2023-04-11T07:07:44.976Z,36.23
2023-04-11T07:10:13.714Z,33.23
2023-04-11T07:12:42.424Z,33.67
2023-04-11T07:15:11.998Z,32.87
2023-04-11T07:17:40.771Z,34.10
2023-04-11T07:20:11.153Z,33.57
2023-04-11T07:22:44.284Z,32.80
2023-04-11T07:25:13.334Z,31.90
2023-04-11T07:27:43.758Z,32.07
2023-04-11T07:30:13.450Z,33.57
2023-04-11T07:32:42.290Z,33.40
2023-04-11T07:35:11.385Z,33.07
2023-04-11T07:37:40.139Z,32.50
2023-04-11T07:40:14.124Z,32.70
2023-04-11T07:42:43.175Z,31.73
2023-04-11T07:45:11.927Z,29.83
2023-04-11T07:47:40.610Z,29.43
2023-04-11T07:50:09.650Z,28.87
2023-04-11T07:52:38.265Z,28.23
2023-04-11T07:55:07.854Z,28.30
2023-04-11T07:57:37.769Z,28.80
2023-04-11T08:00:11.511Z,28.57
2023-04-11T08:02:40.695Z,27.50
2023-04-11T08:05:10.471Z,26.90
2023-04-11T08:07:39.291Z,26.80
2023-04-11T08:10:09.243Z,26.73
2023-04-11T08:12:39.476Z,25.93
2023-04-11T08:15:09.104Z,25.77
2023-04-11T08:17:38.983Z,27.10
2023-04-11T08:20:12.176Z,24.83
2023-04-11T08:22:42.126Z,24.80
2023-04-11T08:25:11.798Z,23.53
2023-04-11T08:27:42.454Z,25.13
2023-04-11T08:30:11.502Z,23.67
2023-04-11T08:32:40.901Z,25.13
2023-04-11T08:35:10.822Z,24.17
2023-04-11T08:37:39.617Z,24.87
2023-04-11T08:40:09.613Z,22.40
2023-04-11T08:42:38.310Z,20.57
2023-04-11T08:45:10.315Z,20.63
2023-04-11T08:47:39.396Z,23.40
2023-04-11T08:50:09.467Z,27.17
2023-04-11T08:52:40.812Z,23.70
2023-04-11T08:55:11.072Z,24.00
2023-04-11T08:57:39.875Z,22.27
2023-04-11T09:00:14.820Z,19.63
2023-04-11T09:03:02.762Z,37.00
2023-04-11T09:05:32.726Z,48.03
2023-04-11T09:08:05.214Z,37.00
2023-04-11T09:10:34.443Z,30.33
2023-04-11T09:13:14.603Z,24.10
2023-04-11T09:15:44.875Z,20.13
2023-04-11T09:18:33.996Z,20.47
2023-04-11T09:21:05.092Z,20.90
2023-04-11T09:23:34.344Z,18.50
2023-04-11T09:26:03.235Z,18.70
2023-04-11T09:28:42.685Z,19.17
2023-04-11T09:31:14.141Z,19.03
2023-04-11T09:33:54.635Z,19.20
2023-04-11T09:36:27.103Z,17.57
2023-04-11T09:38:56.065Z,18.90
2023-04-11T09:41:32.433Z,21.30
2023-04-11T09:44:02.153Z,20.90
2023-04-11T09:46:32.493Z,21.30
2023-04-11T09:49:02.683Z,18.90
2023-04-11T09:51:36.969Z,20.20
2023-04-11T09:54:06.508Z,19.70
2023-04-11T09:56:35.522Z,24.17
2023-04-11T09:59:05.370Z,22.87
2023-04-11T10:01:36.775Z,19.87
2023-04-11T10:04:05.614Z,18.77
2023-04-11T10:06:41.259Z,20.87
2023-04-11T10:09:12.818Z,22.40
2023-04-11T10:11:43.608Z,19.80
2023-04-11T10:14:43.429Z,18.67
2023-04-11T10:17:22.160Z,18.13
2023-04-11T10:19:56.668Z,17.70
2023-04-11T10:23:00.845Z,18.90
2023-04-11T10:25:29.736Z,17.70
2023-04-11T10:28:03.935Z,19.43
2023-04-11T10:31:01.759Z,17.00
2023-04-11T10:33:32.345Z,16.37
2023-04-11T10:36:03.620Z,16.80
2023-04-11T10:38:49.406Z,16.70
2023-04-11T10:41:32.586Z,16.37
2023-04-11T10:44:20.666Z,14.53
2023-04-11T10:46:52.126Z,14.13
2023-04-11T10:49:36.658Z,14.53
2023-04-11T10:52:20.597Z,15.10
2023-04-11T10:54:50.214Z,14.93
2023-04-11T10:57:19.666Z,14.87
2023-04-11T11:00:01.669Z,14.93
2023-04-11T11:02:41.154Z,13.97
2023-04-11T11:05:19.117Z,12.67
2023-04-11T11:07:49.659Z,13.87
2023-04-11T11:10:36.667Z,12.63
2023-04-11T11:13:05.511Z,14.70
2023-04-11T11:15:37.701Z,13.63
2023-04-11T11:18:09.674Z,14.13
2023-04-11T11:20:40.576Z,14.13
2023-04-11T11:23:11.568Z,13.53
2023-04-11T11:25:40.443Z,14.60
2023-04-11T11:28:10.621Z,14.00
2023-04-11T11:30:39.868Z,13.20
2023-04-11T11:33:19.075Z,12.70
2023-04-11T11:35:54.072Z,12.40
2023-04-11T11:38:24.278Z,13.00
2023-04-11T11:40:53.694Z,14.17
2023-04-11T11:43:22.769Z,13.77
2023-04-11T11:46:10.179Z,13.67
2023-04-11T11:48:39.071Z,14.40
2023-04-11T11:51:09.527Z,14.60
2023-04-11T11:53:38.659Z,11.40
2023-04-11T11:56:15.025Z,10.87
2023-04-11T11:58:45.130Z,11.00
2023-04-11T12:01:16.316Z,9.73
2023-04-11T12:03:45.636Z,10.27
2023-04-11T12:06:16.322Z,8.80
2023-04-11T12:08:50.139Z,9.00
2023-04-11T12:11:19.727Z,8.27
2023-04-11T12:13:53.984Z,9.70
2023-04-11T12:16:26.273Z,9.37
2023-04-11T12:18:58.678Z,8.80
2023-04-11T12:21:28.925Z,7.73
2023-04-11T12:23:57.936Z,7.03
2023-04-11T12:26:26.852Z,7.73
2023-04-11T12:28:55.895Z,7.20
2023-04-11T12:31:25.326Z,6.90
2023-04-11T12:33:54.285Z,6.77
2023-04-11T12:36:23.059Z,7.03
2023-04-11T12:38:53.165Z,7.00
2023-04-11T12:41:32.224Z,6.90
2023-04-11T12:44:02.460Z,6.37
2023-04-11T12:46:31.376Z,6.13
2023-04-11T12:49:01.162Z,7.50
2023-04-11T12:51:30.153Z,8.23
2023-04-11T12:54:00.487Z,7.67
2023-04-11T12:56:29.377Z,8.40
2023-04-11T12:58:58.342Z,9.83
2023-04-11T13:01:27.316Z,9.13
2023-04-11T13:03:56.208Z,10.60
2023-04-11T13:06:26.172Z,10.27
2023-04-11T13:08:56.678Z,10.67
2023-04-11T13:11:27.208Z,11.63
2023-04-11T13:13:55.906Z,12.07
2023-04-11T13:16:24.903Z,11.90
2023-04-11T13:18:53.800Z,12.57
2023-04-11T13:21:24.497Z,12.17
2023-04-11T13:23:53.308Z,13.00
2023-04-11T13:26:22.078Z,13.67
2023-04-11T13:28:52.404Z,13.40
2023-04-11T13:31:26.379Z,14.10
2023-04-11T13:33:55.575Z,14.40
2023-04-11T13:36:24.768Z,14.07
2023-04-11T13:38:55.184Z,15.00
2023-04-11T13:41:24.327Z,14.63
2023-04-11T13:43:54.731Z,15.30
2023-04-11T13:46:23.431Z,14.40
2023-04-11T13:48:52.957Z,9.30
2023-04-11T13:51:21.856Z,9.13
2023-04-11T13:53:50.598Z,7.47
2023-04-11T13:56:20.613Z,7.40
2023-04-11T13:58:50.341Z,8.03
2023-04-11T14:01:21.731Z,6.07
2023-04-11T14:03:51.336Z,7.20
2023-04-11T14:06:20.758Z,6.67
2023-04-11T14:08:50.645Z,5.83
2023-04-11T14:11:19.762Z,5.30
2023-04-11T14:13:48.441Z,5.17
2023-04-11T14:16:17.127Z,5.20
2023-04-11T14:18:47.144Z,5.47
2023-04-11T14:21:15.799Z,5.10
2023-04-11T14:23:44.514Z,5.93
2023-04-11T14:26:13.254Z,4.67
2023-04-11T14:28:41.876Z,4.77
2023-04-11T14:31:10.973Z,5.90
2023-04-11T14:33:40.107Z,4.60
2023-04-11T14:36:11.304Z,3.83
2023-04-11T14:38:40.000Z,4.23
2023-04-11T14:41:08.683Z,3.43
2023-04-11T14:43:37.555Z,3.43
2023-04-11T14:46:07.083Z,2.93
2023-04-11T14:48:35.911Z,3.00
2023-04-11T14:51:05.155Z,2.70
2023-04-11T14:53:35.862Z,2.70
2023-04-11T14:56:06.556Z,3.27
2023-04-11T14:58:35.562Z,2.37
2023-04-11T15:01:04.288Z,2.43
2023-04-11T15:03:33.364Z,1.60
2023-04-11T15:06:02.413Z,1.70
2023-04-11T15:08:31.412Z,1.83
2023-04-11T15:11:01.597Z,1.50
2023-04-11T15:13:30.860Z,1.40
2023-04-11T15:16:00.640Z,1.60
2023-04-11T15:18:30.646Z,1.70
2023-04-11T15:21:02.100Z,1.57
2023-04-11T15:23:31.158Z,1.87
2023-04-11T15:26:02.717Z,1.60
2023-04-11T15:28:33.721Z,1.50
2023-04-11T15:31:02.795Z,2.10
2023-04-11T15:33:32.433Z,1.70
2023-04-11T15:36:01.881Z,1.70
2023-04-11T15:38:30.861Z,1.93
2023-04-11T15:41:01.222Z,2.07
2023-04-11T15:43:29.838Z,1.97
2023-04-11T15:45:58.540Z,2.47
2023-04-11T15:48:27.140Z,2.23
2023-04-11T15:50:55.940Z,2.47
2023-04-11T15:53:24.564Z,2.67
2023-04-11T15:55:53.309Z,2.93
2023-04-11T15:58:23.362Z,3.23
2023-04-11T16:00:54.886Z,3.40
2023-04-11T16:03:24.326Z,4.73
2023-04-11T16:05:53.502Z,3.13
2023-04-11T16:08:22.699Z,3.40
2023-04-11T16:10:51.455Z,4.40
2023-04-11T16:13:20.019Z,4.93
2023-04-11T16:15:50.132Z,3.60
2023-04-11T16:18:18.809Z,3.30
2023-04-11T16:20:47.398Z,5.30
2023-04-11T16:23:16.032Z,6.43
2023-04-11T16:25:45.558Z,6.03
2023-04-11T16:28:15.408Z,6.23
2023-04-11T16:30:44.060Z,7.20
2023-04-11T16:33:14.176Z,6.20
2023-04-11T16:35:42.863Z,5.70
2023-04-11T16:38:11.505Z,5.20
2023-04-11T16:40:40.147Z,5.83
2023-04-11T16:43:08.690Z,5.90
2023-04-11T16:45:37.393Z,5.43
2023-04-11T16:48:06.996Z,6.07
2023-04-11T16:50:37.111Z,6.27
2023-04-11T16:53:06.528Z,5.53
2023-04-11T16:55:35.081Z,5.60
2023-04-11T16:58:03.895Z,5.70
2023-04-11T17:00:32.628Z,5.80
2023-04-11T17:03:01.598Z,5.70
2023-04-11T17:05:34.152Z,6.13
2023-04-11T17:08:04.206Z,6.47
2023-04-11T17:10:32.877Z,7.43
2023-04-11T17:13:01.589Z,7.20
2023-04-11T17:15:30.671Z,8.00
2023-04-11T17:18:00.012Z,8.03
2023-04-11T17:20:28.723Z,9.00
2023-04-11T17:22:57.447Z,9.50
2023-04-11T17:25:29.973Z,11.23
2023-04-11T17:28:00.505Z,10.10
2023-04-11T17:30:31.054Z,11.00
2023-04-11T17:33:00.104Z,10.63
2023-04-11T17:35:29.340Z,11.10
2023-04-11T17:37:58.021Z,11.07
2023-04-11T17:40:28.066Z,11.30
2023-04-11T17:42:57.762Z,11.27
2023-04-11T17:45:27.210Z,9.53
2023-04-11T17:47:56.035Z,9.87
2023-04-11T17:50:25.155Z,8.40
2023-04-11T17:52:53.805Z,8.20
2023-04-11T17:55:22.676Z,8.37
2023-04-11T17:57:53.863Z,7.57
2023-04-11T18:00:23.432Z,6.47
2023-04-11T18:02:54.469Z,8.80
2023-04-11T18:05:26.070Z,7.70
2023-04-11T18:07:56.599Z,8.03
2023-04-11T18:10:27.225Z,8.27
2023-04-11T18:12:58.744Z,8.77
2023-04-11T18:15:28.340Z,8.87
2023-04-11T18:17:57.106Z,8.33
2023-04-11T18:20:26.200Z,7.60
2023-04-11T18:22:56.433Z,8.93
2023-04-11T18:25:25.651Z,7.03
2023-04-11T18:27:54.552Z,6.53
2023-04-11T18:30:24.997Z,6.63
2023-04-11T18:32:54.844Z,6.83
2023-04-11T18:35:25.053Z,6.80
2023-04-11T18:37:54.132Z,6.33
2023-04-11T18:40:22.944Z,5.87
2023-04-11T18:42:53.650Z,5.17
2023-04-11T18:45:25.216Z,5.67
2023-04-11T18:47:54.272Z,5.13
2023-04-11T18:50:23.971Z,4.87
2023-04-11T18:52:56.080Z,4.43
2023-04-11T18:55:26.902Z,4.43
2023-04-11T18:57:58.748Z,4.07
2023-04-11T19:00:31.936Z,3.97
2023-04-11T19:03:01.670Z,4.17
2023-04-11T19:05:30.852Z,4.00
2023-04-11T19:08:00.933Z,4.43
2023-04-11T19:10:29.799Z,5.27
2023-04-11T19:12:58.712Z,4.63
2023-04-11T19:15:27.382Z,4.53
2023-04-11T19:17:57.804Z,4.70
2023-04-11T19:20:27.788Z,4.70
2023-04-11T19:22:56.526Z,3.80
2023-04-11T19:25:25.705Z,4.20
2023-04-11T19:27:54.393Z,3.83
2023-04-11T19:30:23.123Z,3.90
2023-04-11T19:32:51.906Z,3.73
2023-04-11T19:35:24.339Z,4.07
2023-04-11T19:37:53.578Z,3.93
2023-04-11T19:40:23.515Z,3.83
2023-04-11T19:42:52.470Z,4.47
2023-04-11T19:45:22.206Z,4.80
2023-04-11T19:47:51.270Z,4.67
2023-04-11T19:50:22.971Z,5.47
2023-04-11T19:52:57.113Z,5.57
2023-04-11T19:55:27.336Z,6.60
2023-04-11T19:57:56.407Z,6.80
2023-04-11T20:00:27.320Z,7.03
2023-04-11T20:02:57.172Z,6.90
2023-04-11T20:05:31.410Z,5.07
2023-04-11T20:08:00.238Z,5.73
2023-04-11T20:10:29.346Z,6.23
2023-04-11T20:12:58.001Z,5.77
2023-04-11T20:15:27.052Z,5.70
2023-04-11T20:17:55.830Z,5.57
2023-04-11T20:20:29.413Z,5.77
2023-04-11T20:22:58.104Z,5.00
2023-04-11T20:25:26.995Z,5.83
2023-04-11T20:27:55.877Z,5.50
2023-04-11T20:30:24.602Z,4.67
2023-04-11T20:32:54.737Z,5.03
2023-04-11T20:35:23.595Z,5.27
2023-04-11T20:37:54.157Z,5.10
2023-04-11T20:40:23.298Z,4.80
2023-04-11T20:42:51.920Z,4.93
2023-04-11T20:45:22.012Z,4.70
2023-04-11T20:47:50.847Z,5.13
2023-04-11T20:50:19.939Z,6.07
2023-04-11T20:52:52.391Z,5.97
2023-04-11T20:55:22.786Z,5.73
2023-04-11T20:57:51.962Z,5.80
2023-04-11T21:00:21.017Z,5.20
2023-04-11T21:02:51.696Z,5.27
2023-04-11T21:05:22.329Z,4.67
2023-04-11T21:07:54.257Z,5.10
2023-04-11T21:10:24.875Z,4.67
2023-04-11T21:12:54.358Z,4.93
2023-04-11T21:15:23.653Z,4.57
2023-04-11T21:17:52.733Z,4.60
2023-04-11T21:20:22.507Z,4.70
2023-04-11T21:22:54.292Z,4.50
2023-04-11T21:25:25.141Z,4.60
2023-04-11T21:27:53.904Z,4.70
2023-04-11T21:30:22.902Z,4.70
2023-04-11T21:32:52.060Z,4.97
2023-04-11T21:35:21.193Z,4.30
2023-04-11T21:37:50.115Z,4.20
2023-04-11T21:40:18.852Z,4.20
2023-04-11T21:42:48.945Z,4.27
2023-04-11T21:45:17.842Z,3.77
2023-04-11T21:47:46.870Z,4.20
2023-04-11T21:50:15.613Z,4.10
2023-04-11T21:52:44.594Z,4.50
2023-04-11T21:55:14.101Z,4.57
2023-04-11T21:57:43.236Z,4.13
2023-04-11T22:00:14.610Z,4.30
2023-04-11T22:02:43.548Z,4.73
2023-04-11T22:05:12.779Z,4.40
2023-04-11T22:07:47.517Z,4.83
2023-04-11T22:10:23.698Z,4.67
2023-04-11T22:12:54.506Z,5.23
2023-04-11T22:15:25.049Z,5.20
2023-04-11T22:17:56.448Z,5.00
2023-04-11T22:20:25.512Z,5.70
2023-04-11T22:22:56.668Z,5.40
2023-04-11T22:25:25.613Z,5.53
2023-04-11T22:27:54.900Z,5.33
2023-04-11T22:30:25.503Z,4.93
2023-04-11T22:32:55.539Z,5.47
2023-04-11T22:35:26.047Z,5.83
2023-04-11T22:37:57.397Z,5.67
2023-04-11T22:40:26.368Z,5.97
2023-04-11T22:42:55.535Z,5.83
2023-04-11T22:45:26.129Z,5.70
2023-04-11T22:47:56.970Z,5.27
2023-04-11T22:50:25.814Z,6.30
2023-04-11T22:52:54.958Z,6.27
2023-04-11T22:55:25.093Z,5.70
2023-04-11T22:57:54.043Z,5.87
2023-04-11T23:00:24.193Z,5.50
2023-04-11T23:02:54.425Z,5.17
2023-04-11T23:05:23.365Z,6.37
2023-04-11T23:07:52.059Z,5.70
2023-04-11T23:10:21.003Z,5.87
2023-04-11T23:12:50.321Z,5.70
2023-04-11T23:15:19.422Z,4.90
2023-04-11T23:17:49.053Z,5.20
2023-04-11T23:20:22.071Z,6.03
2023-04-11T23:22:50.836Z,5.93
2023-04-11T23:25:19.953Z,6.43
2023-04-11T23:27:48.674Z,6.33
2023-04-11T23:30:17.841Z,7.03
2023-04-11T23:32:47.216Z,7.17
2023-04-11T23:35:19.454Z,6.53
2023-04-11T23:37:49.794Z,6.53
2023-04-11T23:40:18.616Z,6.53
2023-04-11T23:42:48.117Z,7.20
2023-04-11T23:45:20.596Z,7.30
2023-04-11T23:47:49.619Z,6.67
2023-04-11T23:50:19.014Z,6.83
2023-04-11T23:52:49.268Z,6.33
2023-04-11T23:55:18.052Z,6.33
2023-04-11T23:57:46.933Z,7.40
